Time;durP1;ratioP1;P1;durP2;ratioP2;P2;SDS_P1;SDS_P2;PMS_P1;PMS_P2;Temp;Humidity;BMP_temperature;BMP_pressure;BME280_temperature;BME280_humidity;BME280_pressure;Samples;Min_cycle;Max_cycle;Signal;HPM_P1;HPM_P2
2023/10/25 00:00:48;;;;;;;4.27;2.30;;;;;;;11.65;82.00;95199.78;4986438;28;20482;-74
2023/10/25 00:03:15;;;;;;;4.67;3.53;;;;;;;11.79;81.30;95195.41;4986834;28;20254;-75
2023/10/25 00:05:42;;;;;;;4.50;2.97;;;;;;;11.73;81.25;95194.00;4986313;28;20219;-72
2023/10/25 00:08:07;;;;;;;3.03;2.73;;;;;;;11.78;81.03;95184.03;4986549;28;20809;-72
2023/10/25 00:10:32;;;;;;;4.07;2.77;;;;;;;11.73;81.04;95196.66;4986632;28;20420;-72
2023/10/25 00:12:58;;;;;;;2.67;2.47;;;;;;;11.75;80.61;95186.03;4986529;28;20180;-73
2023/10/25 00:15:23;;;;;;;3.37;3.07;;;;;;;11.82;80.88;95188.13;4985900;28;20201;-73
2023/10/25 00:17:49;;;;;;;6.80;3.00;;;;;;;11.77;81.39;95190.25;4986270;28;20184;-73
2023/10/25 00:20:14;;;;;;;3.77;2.67;;;;;;;11.74;81.37;95195.72;4986361;28;20177;-73
2023/10/25 00:22:40;;;;;;;5.17;2.90;;;;;;;11.65;81.32;95191.91;4986234;28;20184;-73
2023/10/25 00:25:06;;;;;;;4.33;3.10;;;;;;;11.58;81.54;95195.06;4986070;28;20284;-72
2023/10/25 00:27:31;;;;;;;3.10;2.80;;;;;;;11.49;82.32;95201.75;4986168;28;20367;-71
2023/10/25 00:29:56;;;;;;;4.83;3.23;;;;;;;11.53;80.92;95203.25;4986112;28;20211;-72
2023/10/25 00:32:22;;;;;;;4.40;2.83;;;;;;;11.51;81.15;95199.88;4986194;28;20173;-72
2023/10/25 00:34:47;;;;;;;8.53;3.20;;;;;;;11.50;81.98;95207.84;4986093;28;20750;-70
2023/10/25 00:37:12;;;;;;;4.27;3.00;;;;;;;11.51;81.63;95217.44;4989570;28;20181;-72
2023/10/25 00:39:38;;;;;;;6.40;2.70;;;;;;;11.43;81.06;95220.53;4989793;28;20196;-72
2023/10/25 00:42:03;;;;;;;6.80;2.77;;;;;;;11.40;80.87;95220.75;4989984;28;20200;-74
2023/10/25 00:44:29;;;;;;;3.47;2.27;;;;;;;11.27;82.07;95219.88;4989466;28;20787;-73
2023/10/25 00:46:54;;;;;;;2.90;2.70;;;;;;;11.25;81.99;95216.53;4989822;28;20579;-74
2023/10/25 00:49:20;;;;;;;3.00;2.70;;;;;;;11.22;81.76;95217.56;4989569;28;20244;-73
2023/10/25 00:51:46;;;;;;;3.33;2.80;;;;;;;11.19;81.70;95215.97;4989604;28;20173;-71
2023/10/25 00:54:13;;;;;;;4.13;2.80;;;;;;;11.29;81.86;95210.13;4989468;28;20553;-72
2023/10/25 00:56:39;;;;;;;3.40;3.07;;;;;;;11.22;81.41;95213.16;4990493;28;20445;-73
2023/10/25 00:59:06;;;;;;;3.20;2.30;;;;;;;11.21;81.07;95210.63;4989555;28;20416;-73
2023/10/25 01:01:32;;;;;;;2.47;2.10;;;;;;;11.19;81.16;95207.25;4989745;28;20419;-73
2023/10/25 01:03:58;;;;;;;2.57;2.37;;;;;;;11.20;81.19;95201.91;4989637;28;20452;-71
2023/10/25 01:06:23;;;;;;;5.00;2.50;;;;;;;11.16;80.90;95196.97;4989806;28;20808;-72
2023/10/25 01:08:49;;;;;;;3.53;2.30;;;;;;;11.27;80.99;95190.97;4989683;28;20211;-74
2023/10/25 01:11:14;;;;;;;1.70;1.60;;;;;;;11.26;80.45;95184.06;4991965;28;20647;-71
2023/10/25 01:13:40;;;;;;;6.03;2.60;;;;;;;11.27;80.53;95185.72;4989391;28;20255;-70
2023/10/25 01:16:05;;;;;;;3.17;2.40;;;;;;;11.16;81.44;95181.22;4989226;28;20718;-75
2023/10/25 01:18:31;;;;;;;7.87;2.83;;;;;;;11.06;81.39;95183.59;4989059;28;20176;-74
2023/10/25 01:20:56;;;;;;;9.23;3.10;;;;;;;11.05;81.01;95178.44;4989254;28;20634;-72
2023/10/25 01:23:22;;;;;;;8.43;2.90;;;;;;;11.01;81.77;95178.63;4989194;28;20173;-74
2023/10/25 01:25:47;;;;;;;3.03;2.40;;;;;;;11.03;80.82;95181.16;4988611;28;20192;-73
2023/10/25 01:28:13;;;;;;;5.47;2.97;;;;;;;11.17;81.07;95178.50;4988770;28;20901;-72
2023/10/25 01:30:39;;;;;;;6.10;2.83;;;;;;;11.22;79.84;95175.56;4988940;28;20177;-72
2023/10/25 01:33:05;;;;;;;3.20;2.90;;;;;;;11.12;79.86;95164.78;4988897;28;20651;-73
2023/10/25 01:35:31;;;;;;;5.90;2.43;;;;;;;10.93;81.48;95153.81;4988532;28;20435;-72
2023/10/25 01:37:57;;;;;;;2.80;2.60;;;;;;;11.06;80.54;95149.47;4989524;28;20954;-72
2023/10/25 01:40:22;;;;;;;2.97;2.67;;;;;;;10.91;81.22;95150.47;4989067;28;20177;-73
2023/10/25 01:42:51;;;;;;;3.43;3.13;;;;;;;11.01;81.36;95148.94;4988065;28;20481;-73
2023/10/25 01:45:16;;;;;;;2.83;2.53;;;;;;;10.99;81.24;95150.81;4986899;28;20208;-73
2023/10/25 01:47:42;;;;;;;4.07;2.80;;;;;;;10.96;80.57;95151.84;4987829;28;20474;-74
2023/10/25 01:50:07;;;;;;;3.77;3.47;;;;;;;10.90;81.28;95156.66;4987967;28;20276;-71
2023/10/25 01:52:33;;;;;;;3.13;2.90;;;;;;;10.93;80.27;95172.19;4988684;28;20275;-71
2023/10/25 01:54:58;;;;;;;3.30;3.00;;;;;;;10.98;80.74;95164.84;4987346;28;20283;-73
2023/10/25 01:57:24;;;;;;;4.43;3.50;;;;;;;11.00;80.65;95157.72;4988430;28;20227;-73
2023/10/25 01:59:49;;;;;;;3.60;3.30;;;;;;;10.97;80.70;95157.94;4988443;28;20927;-74
2023/10/25 02:02:15;;;;;;;3.40;3.03;;;;;;;10.93;80.53;95162.53;4988492;28;20181;-73
2023/10/25 02:04:40;;;;;;;4.13;3.20;;;;;;;10.85;81.17;95172.69;4988382;28;20184;-74
2023/10/25 02:07:06;;;;;;;3.60;3.30;;;;;;;10.89;80.87;95173.31;4988668;28;20207;-72
2023/10/25 02:09:31;;;;;;;3.70;3.40;;;;;;;10.95;80.63;95167.69;4988918;28;20266;-74
2023/10/25 02:11:57;;;;;;;4.33;3.73;;;;;;;10.96;80.57;95159.72;4988410;28;20828;-73
2023/10/25 02:14:22;;;;;;;5.33;4.17;;;;;;;10.89;80.92;95168.06;4988384;28;20275;-74
2023/10/25 02:16:47;;;;;;;7.47;4.20;;;;;;;10.94;81.02;95160.78;4988173;28;20216;-71
2023/10/25 02:19:14;;;;;;;5.87;5.10;;;;;;;10.96;81.04;95174.63;4988196;28;20169;-73
2023/10/25 02:21:40;;;;;;;5.83;5.23;;;;;;;10.94;80.97;95169.47;4987966;28;20177;-73
2023/10/25 02:24:06;;;;;;;5.57;5.10;;;;;;;10.92;81.59;95163.50;4987838;28;20470;-73
2023/10/25 02:26:31;;;;;;;7.53;5.83;;;;;;;10.90;80.80;95172.41;4988130;28;20201;-74
2023/10/25 02:28:58;;;;;;;14.70;6.20;;;;;;;10.77;81.93;95167.97;4987726;28;20316;-73
2023/10/25 02:31:23;;;;;;;5.97;5.37;;;;;;;10.75;82.01;95169.00;4988004;28;20268;-73
2023/10/25 02:33:48;;;;;;;7.73;6.40;;;;;;;10.80;81.84;95177.41;4987722;28;20422;-71
2023/10/25 02:36:14;;;;;;;7.50;6.70;;;;;;;10.86;81.40;95171.75;4987804;28;20849;-72
2023/10/25 02:38:39;;;;;;;11.13;5.93;;;;;;;10.76;82.28;95171.50;4987707;28;20183;-74
2023/10/25 02:41:05;;;;;;;8.40;7.50;;;;;;;10.58;82.79;95167.44;4987748;28;20672;-73
2023/10/25 02:43:30;;;;;;;8.00;7.10;;;;;;;10.67;83.04;95164.22;4985730;28;20401;-72
2023/10/25 02:46:05;;;;;;;7.33;6.20;;;;;;;10.67;82.60;95161.59;4987776;28;20223;-73
2023/10/25 02:48:31;;;;;;;7.77;6.83;;;;;;;10.69;82.46;95164.13;4987271;28;20239;-72
2023/10/25 02:51:01;;;;;;;6.67;5.97;;;;;;;10.67;82.93;95164.22;4987572;28;20813;-72
2023/10/25 02:53:26;;;;;;;7.70;6.30;;;;;;;10.74;82.43;95162.03;4987939;28;20663;-71
2023/10/25 02:55:59;;;;;;;8.90;6.60;;;;;;;10.70;82.55;95158.78;4987410;28;20424;-73
2023/10/25 02:58:24;;;;;;;6.60;6.00;;;;;;;10.72;82.01;95162.13;4987053;28;20173;-72
2023/10/25 03:00:50;;;;;;;6.80;6.20;;;;;;;10.73;81.73;95155.97;4987084;28;20423;-73
2023/10/25 03:03:15;;;;;;;6.57;5.97;;;;;;;10.77;82.05;95154.84;4987509;28;20506;-73
2023/10/25 03:05:40;;;;;;;6.60;6.00;;;;;;;10.80;82.37;95154.63;4986652;28;20189;-72
2023/10/25 03:08:06;;;;;;;6.50;5.90;;;;;;;10.80;81.84;95151.16;4987169;28;20205;-73
2023/10/25 03:10:31;;;;;;;7.87;6.73;;;;;;;10.83;81.73;95144.88;4985737;28;20235;-72
2023/10/25 03:12:57;;;;;;;9.53;6.80;;;;;;;10.77;82.20;95149.59;4987058;28;20235;-71
2023/10/25 03:15:22;;;;;;;7.93;6.53;;;;;;;10.88;82.07;95142.78;4986721;28;20204;-73
2023/10/25 03:17:47;;;;;;;10.97;7.20;;;;;;;10.80;81.69;95141.50;4987022;28;20216;-73
2023/10/25 03:20:13;;;;;;;7.30;6.30;;;;;;;10.72;81.88;95142.94;4987494;28;20246;-72
2023/10/25 03:22:38;;;;;;;9.07;8.10;;;;;;;10.74;82.12;95141.91;4987355;28;20185;-73
2023/10/25 03:25:04;;;;;;;9.17;7.80;;;;;;;10.60;82.54;95128.81;4987082;28;20199;-73
2023/10/25 03:27:29;;;;;;;8.10;7.30;;;;;;;10.48;83.33;95124.38;4987069;28;20184;-72
2023/10/25 03:29:55;;;;;;;8.50;7.67;;;;;;;10.51;83.14;95130.28;4986891;28;20498;-72
2023/10/25 03:32:20;;;;;;;10.53;7.70;;;;;;;10.55;83.16;95126.50;4987246;28;20772;-72
2023/10/25 03:34:45;;;;;;;9.13;7.13;;;;;;;10.55;83.39;95121.25;4986498;28;20172;-72
2023/10/25 03:37:11;;;;;;;8.47;7.57;;;;;;;10.56;82.85;95125.56;4986752;28;20545;-71
2023/10/25 03:39:36;;;;;;;9.10;8.10;;;;;;;10.49;83.45;95126.06;4986839;28;20172;-72
2023/10/25 03:42:03;;;;;;;7.47;6.57;;;;;;;10.55;83.08;95126.50;4986729;28;20228;-73
2023/10/25 03:44:29;;;;;;;8.03;7.23;;;;;;;10.59;83.02;95128.00;4986261;28;20204;-73
2023/10/25 03:46:54;;;;;;;13.80;7.93;;;;;;;10.52;83.13;95131.13;4986682;28;20467;-74
2023/10/25 03:49:20;;;;;;;9.60;8.03;;;;;;;10.60;82.70;95139.31;4986929;28;20208;-73
2023/10/25 03:51:45;;;;;;;8.27;7.03;;;;;;;10.37;83.47;95133.78;4986700;28;20180;-73
2023/10/25 03:54:11;;;;;;;8.07;7.03;;;;;;;10.50;83.06;95128.56;4987011;28;20268;-73
2023/10/25 03:56:36;;;;;;;6.60;6.00;;;;;;;10.37;83.63;95120.66;4987703;28;20188;-73
2023/10/25 03:59:01;;;;;;;9.57;6.67;;;;;;;10.41;83.51;95117.84;4987263;28;20230;-71
2023/10/25 04:01:27;;;;;;;8.00;7.00;;;;;;;10.32;83.73;95122.75;4986599;28;20188;-72
2023/10/25 04:03:52;;;;;;;6.83;6.13;;;;;;;10.42;83.26;95111.63;4986388;28;20264;-72
2023/10/25 04:06:18;;;;;;;15.30;7.37;;;;;;;10.42;82.56;95107.25;4986637;28;20224;-70
2023/10/25 04:08:43;;;;;;;14.67;8.33;;;;;;;10.42;82.79;95109.00;4986560;28;20201;-71
2023/10/25 04:11:08;;;;;;;16.00;9.50;;;;;;;10.48;82.29;95109.47;4988362;28;20177;-73
2023/10/25 04:13:34;;;;;;;15.77;11.03;;;;;;;10.31;83.56;95107.09;4990186;28;20176;-73
2023/10/25 04:16:02;;;;;;;16.27;10.27;;;;;;;10.33;83.06;95099.97;4984649;28;20758;-72
2023/10/25 04:18:29;;;;;;;17.77;10.03;;;;;;;10.12;83.58;95104.75;4990649;28;20683;-71
2023/10/25 04:20:56;;;;;;;18.90;10.37;;;;;;;10.02;84.33;95101.03;4988684;28;20424;-73
2023/10/25 04:23:22;;;;;;;16.80;9.83;;;;;;;10.14;84.30;95106.34;4988918;28;20841;-73
2023/10/25 04:25:48;;;;;;;19.10;8.30;;;;;;;10.02;84.18;95098.41;4989191;28;21187;-73
2023/10/25 04:28:14;;;;;;;18.60;10.47;;;;;;;10.04;84.25;95094.75;4989252;28;20467;-70
2023/10/25 04:30:39;;;;;;;21.57;9.93;;;;;;;9.93;84.94;95091.97;4989434;28;20177;-73
2023/10/25 04:33:05;;;;;;;24.03;10.97;;;;;;;10.21;83.91;95088.47;4988952;28;20185;-74
2023/10/25 04:35:30;;;;;;;17.53;10.23;;;;;;;9.88;85.07;95081.78;4988628;28;20787;-71
2023/10/25 04:37:56;;;;;;;22.30;11.13;;;;;;;10.05;84.52;95080.72;4990866;28;20207;-73
2023/10/25 04:40:22;;;;;;;18.53;10.50;;;;;;;9.94;84.78;95083.16;5000457;28;20536;-71
2023/10/25 04:42:50;;;;;;;15.23;8.37;;;;;;;9.95;85.05;95088.31;5001308;28;20707;-69
2023/10/25 04:45:15;;;;;;;16.57;8.53;;;;;;;10.02;84.95;95080.91;5000152;28;20203;-70
2023/10/25 04:47:41;;;;;;;15.73;9.20;;;;;;;9.95;84.63;95083.06;4987565;28;20547;-68
2023/10/25 04:50:06;;;;;;;15.73;8.97;;;;;;;10.11;84.23;95079.47;4983866;28;20213;-69
2023/10/25 04:52:32;;;;;;;13.57;9.03;;;;;;;10.24;83.00;95082.16;4986495;28;20215;-69
2023/10/25 04:54:57;;;;;;;10.70;8.03;;;;;;;10.16;83.04;95074.81;4974871;28;20200;-68
2023/10/25 04:57:23;;;;;;;9.37;6.87;;;;;;;10.17;83.02;95079.09;4976417;28;20189;-69
2023/10/25 04:59:48;;;;;;;9.07;7.30;;;;;;;10.17;83.24;95073.84;4968975;28;20185;-69
2023/10/25 05:02:14;;;;;;;11.30;8.30;;;;;;;10.28;82.95;95070.56;4969482;28;20194;-69
2023/10/25 05:04:39;;;;;;;8.90;6.43;;;;;;;10.29;82.28;95072.25;4977678;28;20284;-69
2023/10/25 05:07:05;;;;;;;9.77;7.70;;;;;;;10.34;82.30;95064.94;4980898;28;21110;-69
2023/10/25 05:09:34;;;;;;;8.00;6.47;;;;;;;10.28;82.06;95067.94;4985214;28;20209;-69
2023/10/25 05:12:04;;;;;;;9.20;7.47;;;;;;;10.21;81.94;95061.41;4980102;28;20437;-68
2023/10/25 05:14:30;;;;;;;8.40;7.00;;;;;;;10.19;82.06;95053.63;4988966;28;20519;-69
2023/10/25 05:16:56;;;;;;;9.03;6.70;;;;;;;10.06;83.15;95047.47;4981248;28;20524;-69
2023/10/25 05:19:22;;;;;;;12.13;7.17;;;;;;;10.01;83.38;95052.16;4974462;28;20879;-69
2023/10/25 05:21:51;;;;;;;11.50;7.83;;;;;;;9.98;84.10;95049.75;4987300;28;20552;-69
2023/10/25 05:24:17;;;;;;;19.30;11.50;;;;;;;10.15;83.30;95057.38;4989797;28;20750;-68
2023/10/25 05:26:44;;;;;;;28.87;16.07;;;;;;;10.33;82.58;95050.16;4987523;28;20673;-69
2023/10/25 05:29:10;;;;;;;30.10;16.70;;;;;;;10.32;82.68;95046.69;4988485;28;20463;-69
2023/10/25 05:31:43;;;;;;;35.27;16.40;;;;;;;10.33;82.85;95044.91;4981080;28;20541;-69
2023/10/25 05:34:09;;;;;;;43.50;16.93;;;;;;;10.36;82.93;95042.91;4983247;28;20446;-69
2023/10/25 05:36:36;;;;;;;26.47;14.57;;;;;;;10.22;82.73;95040.31;4990584;28;20460;-68
2023/10/25 05:39:01;;;;;;;24.93;14.20;;;;;;;10.20;82.65;95042.19;4996378;28;20443;-70
2023/10/25 05:41:30;;;;;;;25.33;13.27;;;;;;;10.16;83.45;95046.81;4997268;28;20424;-69
2023/10/25 05:44:07;;;;;;;37.63;17.37;;;;;;;10.23;83.13;95044.63;4990512;28;20208;-68
2023/10/25 05:46:32;;;;;;;21.00;13.47;;;;;;;10.28;82.68;95045.19;4991080;28;20455;-69
2023/10/25 05:48:58;;;;;;;18.10;12.27;;;;;;;10.30;82.44;95032.84;4985120;28;20482;-69
2023/10/25 05:51:23;;;;;;;17.53;10.03;;;;;;;10.26;82.73;95039.19;4986049;28;20189;-69
2023/10/25 05:53:49;;;;;;;25.10;14.53;;;;;;;10.30;81.72;95045.09;4989621;28;20228;-69
2023/10/25 05:56:16;;;;;;;26.43;15.50;;;;;;;10.14;82.24;95045.22;4990062;28;20201;-68
2023/10/25 05:58:42;;;;;;;35.20;17.10;;;;;;;10.19;82.46;95037.91;4986626;28;20181;-69
2023/10/25 06:01:11;;;;;;;32.53;18.00;;;;;;;10.02;82.22;95041.59;4986376;28;20427;-68
2023/10/25 06:03:41;;;;;;;28.57;14.93;;;;;;;10.16;82.85;95031.06;4986244;28;20185;-69
2023/10/25 06:06:11;;;;;;;20.93;12.30;;;;;;;10.27;82.05;95032.97;4986898;28;20970;-71
2023/10/25 06:08:37;;;;;;;16.27;8.80;;;;;;;10.30;82.02;95024.09;4986717;28;20577;-69
2023/10/25 06:11:06;;;;;;;11.17;8.90;;;;;;;10.31;81.75;95028.44;4982419;28;20425;-70
2023/10/25 06:13:32;;;;;;;15.30;10.27;;;;;;;10.09;81.60;95018.47;4984616;28;20416;-69
2023/10/25 06:15:58;;;;;;;22.57;13.30;;;;;;;9.80;82.96;95022.91;4986389;28;20451;-69
2023/10/25 06:18:23;;;;;;;25.10;14.17;;;;;;;9.92;82.96;95009.03;4986778;28;20284;-69
2023/10/25 06:20:49;;;;;;;26.00;15.93;;;;;;;9.96;83.12;95018.38;4988751;28;20187;-70
2023/10/25 06:23:14;;;;;;;30.73;16.80;;;;;;;9.67;84.20;95028.94;4988883;28;20276;-69
2023/10/25 06:25:39;;;;;;;40.67;19.43;;;;;;;9.89;84.04;95033.66;4987604;28;20684;-69
2023/10/25 06:28:05;;;;;;;30.87;18.57;;;;;;;10.15;82.72;95016.25;4986205;28;20196;-69
2023/10/25 06:30:30;;;;;;;32.00;18.80;;;;;;;9.90;83.41;95014.38;4986688;28;20663;-69
2023/10/25 06:32:59;;;;;;;29.40;15.47;;;;;;;9.98;83.54;95006.03;4987129;28;20242;-69
2023/10/25 06:35:24;;;;;;;28.90;15.43;;;;;;;10.17;83.04;95021.41;4987791;28;20973;-69
2023/10/25 06:37:50;;;;;;;36.63;18.20;;;;;;;10.25;82.59;95027.03;4988228;28;20452;-68
2023/10/25 06:40:16;;;;;;;27.63;16.50;;;;;;;10.35;81.78;95025.50;4987992;28;20267;-69
2023/10/25 06:42:42;;;;;;;19.63;13.60;;;;;;;10.46;81.82;95021.34;4988028;28;20201;-69
2023/10/25 06:45:12;;;;;;;24.10;14.90;;;;;;;10.51;81.47;95021.88;4987617;28;20836;-69
2023/10/25 06:47:38;;;;;;;19.63;14.23;;;;;;;10.56;81.18;95025.06;4988095;28;20177;-69
2023/10/25 06:50:04;;;;;;;22.93;13.77;;;;;;;10.50;81.37;95020.19;4988243;28;20602;-70
2023/10/25 06:52:29;;;;;;;18.90;12.07;;;;;;;10.62;81.25;95018.56;4988191;28;20176;-69
2023/10/25 06:54:55;;;;;;;14.30;8.00;;;;;;;10.73;80.19;95016.91;4987606;28;20420;-69
2023/10/25 06:57:21;;;;;;;12.03;8.07;;;;;;;10.70;79.28;95014.50;4988146;28;20259;-69
2023/10/25 06:59:46;;;;;;;11.60;7.87;;;;;;;10.72;79.83;95022.25;4988907;28;20228;-68
2023/10/25 07:02:40;;;;;;;9.90;7.77;;;;;;;10.78;80.17;95017.44;4988511;28;20272;-68
2023/10/25 07:05:11;;;;;;;11.67;7.47;;;;;;;10.84;80.17;95020.59;4987321;28;20351;-69
2023/10/25 07:07:39;;;;;;;13.63;8.10;;;;;;;10.87;80.76;95020.41;4988000;28;20506;-68
2023/10/25 07:10:06;;;;;;;7.60;6.80;;;;;;;10.79;79.95;95019.13;4987549;28;20471;-69
2023/10/25 07:12:33;;;;;;;14.67;7.37;;;;;;;10.82;80.26;95018.06;4987744;28;20502;-67
2023/10/25 07:14:58;;;;;;;13.13;8.70;;;;;;;10.82;80.37;95002.34;4987162;28;20539;-69
2023/10/25 07:17:24;;;;;;;12.53;6.77;;;;;;;10.79;80.06;95007.75;4987382;28;20967;-70
2023/10/25 07:19:50;;;;;;;12.70;6.63;;;;;;;10.77;80.69;95000.03;4988324;28;20538;-69
2023/10/25 07:22:16;;;;;;;13.43;8.60;;;;;;;10.81;80.76;94998.00;4987737;28;20176;-69
2023/10/25 07:24:41;;;;;;;9.93;7.43;;;;;;;10.69;81.34;94993.59;4987284;28;20595;-69
2023/10/25 07:27:06;;;;;;;10.87;7.83;;;;;;;10.47;82.23;94987.16;4987524;28;20188;-69
2023/10/25 07:29:32;;;;;;;9.50;7.10;;;;;;;10.38;83.02;94987.75;4987609;28;20207;-70
2023/10/25 07:31:57;;;;;;;24.83;8.23;;;;;;;10.57;82.31;94982.13;4987497;28;20896;-69
2023/10/25 07:34:23;;;;;;;19.10;8.80;;;;;;;10.79;82.18;94976.28;4987237;28;20184;-69
2023/10/25 07:36:48;;;;;;;11.73;7.20;;;;;;;10.36;82.68;94976.53;4987330;28;20228;-68
2023/10/25 07:39:15;;;;;;;11.50;7.13;;;;;;;10.55;82.37;94974.34;4987346;28;20177;-69
2023/10/25 07:41:41;;;;;;;9.20;6.30;;;;;;;10.47;82.69;94967.97;4987470;28;20184;-70
2023/10/25 07:44:07;;;;;;;9.83;7.17;;;;;;;10.59;81.87;94972.38;4986666;28;21130;-70
2023/10/25 07:46:32;;;;;;;16.30;7.87;;;;;;;10.63;82.17;94979.13;4992577;28;20205;-70
2023/10/25 07:48:57;;;;;;;8.23;6.10;;;;;;;10.73;81.14;94966.22;4994090;28;20204;-70
2023/10/25 07:51:23;;;;;;;7.40;5.90;;;;;;;10.77;80.81;94959.78;4993969;28;20188;-69
2023/10/25 07:53:48;;;;;;;7.63;5.83;;;;;;;10.96;80.51;94972.50;4993554;28;20215;-69
2023/10/25 07:56:14;;;;;;;9.33;6.33;;;;;;;10.99;80.35;94973.16;4994108;28;20572;-69
2023/10/25 07:58:39;;;;;;;8.23;7.23;;;;;;;10.96;80.23;94975.13;4994202;28;20172;-69
2023/10/25 08:01:05;;;;;;;10.20;6.23;;;;;;;10.88;81.43;94972.19;4993416;28;20259;-69
2023/10/25 08:03:30;;;;;;;6.73;5.40;;;;;;;10.84;81.46;94970.72;4993764;28;20179;-70
2023/10/25 08:05:56;;;;;;;6.17;5.30;;;;;;;10.81;81.24;94963.91;4993365;28;20201;-69
2023/10/25 08:08:21;;;;;;;7.90;6.53;;;;;;;10.90;80.91;94954.56;4993304;28;20200;-70
2023/10/25 08:10:47;;;;;;;9.13;7.37;;;;;;;10.56;81.85;94956.84;4993368;28;20176;-69
2023/10/25 08:13:12;;;;;;;15.70;7.23;;;;;;;10.94;80.62;94956.06;4993433;28;20200;-69
2023/10/25 08:15:37;;;;;;;7.80;6.03;;;;;;;11.02;80.36;94962.44;4991488;28;20196;-69
2023/10/25 08:18:03;;;;;;;7.37;5.80;;;;;;;11.09;80.69;94972.53;4993376;28;20181;-69
2023/10/25 08:20:28;;;;;;;10.87;6.47;;;;;;;10.95;80.48;94966.41;4993333;28;20183;-71
2023/10/25 08:22:55;;;;;;;21.77;7.40;;;;;;;11.13;80.71;94963.50;4993516;28;20181;-68
2023/10/25 08:25:21;;;;;;;7.80;6.10;;;;;;;11.11;80.27;94953.09;4993114;28;20196;-70
2023/10/25 08:27:46;;;;;;;8.83;6.57;;;;;;;11.09;80.52;94949.72;4993426;28;20427;-69
2023/10/25 08:30:12;;;;;;;8.50;6.47;;;;;;;11.43;79.30;94950.84;4993484;28;20466;-69
2023/10/25 08:32:37;;;;;;;9.93;6.57;;;;;;;11.29;80.11;94945.72;4992922;28;20873;-70
2023/10/25 08:35:04;;;;;;;6.20;5.20;;;;;;;11.29;80.23;94951.00;4992618;28;20309;-69
2023/10/25 08:37:29;;;;;;;8.00;6.30;;;;;;;11.33;79.97;94947.19;4975678;28;20259;-68
2023/10/25 08:39:55;;;;;;;9.00;7.57;;;;;;;11.32;80.43;94937.63;4993438;28;20539;-70
2023/10/25 08:42:21;;;;;;;8.50;6.67;;;;;;;11.53;79.00;94943.16;4993818;28;20180;-69
2023/10/25 08:44:46;;;;;;;22.40;6.60;;;;;;;11.50;78.97;94945.16;4993118;28;20177;-69
2023/10/25 08:47:13;;;;;;;6.67;5.93;;;;;;;11.56;77.39;94942.09;4993257;28;20419;-69
2023/10/25 08:49:39;;;;;;;13.43;5.77;;;;;;;11.77;76.62;94931.84;4992899;28;20215;-69
2023/10/25 08:52:06;;;;;;;7.93;7.13;;;;;;;11.74;77.90;94937.31;4993242;28;20412;-69
2023/10/25 08:54:34;;;;;;;8.20;6.40;;;;;;;11.81;77.76;94930.66;4992937;28;20311;-70
2023/10/25 08:56:59;;;;;;;7.47;6.70;;;;;;;11.70;77.45;94925.34;4974178;28;20462;-69
2023/10/25 08:59:24;;;;;;;7.00;6.30;;;;;;;11.81;78.07;94928.03;4990185;28;20412;-67
2023/10/25 09:01:50;;;;;;;9.67;5.73;;;;;;;11.97;76.11;94915.47;4990223;28;20235;-70
2023/10/25 09:04:16;;;;;;;11.73;6.40;;;;;;;11.76;77.44;94925.72;4989669;28;20706;-68
2023/10/25 09:06:41;;;;;;;15.73;6.00;;;;;;;12.04;77.26;94905.34;4989906;28;20193;-69
2023/10/25 09:09:08;;;;;;;7.43;6.10;;;;;;;11.89;77.18;94909.13;4989700;28;20770;-68
2023/10/25 09:11:45;;;;;;;7.57;5.67;;;;;;;12.14;76.05;94898.47;4990285;28;20188;-70
2023/10/25 09:14:16;;;;;;;8.73;5.27;;;;;;;12.37;75.16;94891.47;4989457;28;20408;-69
2023/10/25 09:16:43;;;;;;;5.63;5.13;;;;;;;12.12;74.50;94884.59;4989484;28;20447;-69
2023/10/25 09:19:10;;;;;;;7.83;4.50;;;;;;;11.71;77.17;94890.22;4989502;28;20500;-70
2023/10/25 09:21:35;;;;;;;5.67;4.50;;;;;;;11.42;78.18;94891.38;4989388;28;20420;-70
2023/10/25 09:24:02;;;;;;;6.57;4.40;;;;;;;11.35;77.67;94884.88;4989147;28;20428;-69
2023/10/25 09:26:39;;;;;;;8.27;6.03;;;;;;;11.40;77.91;94888.00;4988474;28;20212;-69
2023/10/25 09:29:04;;;;;;;8.57;6.63;;;;;;;11.48;77.82;94879.59;4987767;28;20945;-68
2023/10/25 09:31:31;;;;;;;6.70;5.50;;;;;;;11.30;78.75;94875.66;4988795;28;20522;-69
2023/10/25 09:33:58;;;;;;;6.40;5.77;;;;;;;11.52;78.81;94870.53;4988457;28;20668;-70
2023/10/25 09:36:24;;;;;;;6.73;5.40;;;;;;;11.72;77.87;94863.00;4989201;28;20447;-69
2023/10/25 09:38:51;;;;;;;6.10;5.50;;;;;;;12.03;75.62;94857.19;4989395;28;20738;-68
2023/10/25 09:41:17;;;;;;;6.03;5.20;;;;;;;12.14;75.65;94850.28;4989514;28;20416;-69
2023/10/25 09:43:47;;;;;;;6.83;6.13;;;;;;;11.92;76.24;94853.69;4989381;28;20922;-70
2023/10/25 09:46:16;;;;;;;6.10;5.27;;;;;;;11.79;77.40;94840.59;4989497;28;20440;-69
2023/10/25 09:48:53;;;;;;;12.87;5.80;;;;;;;11.93;77.01;94826.44;4988784;28;20621;-69
2023/10/25 09:51:30;;;;;;;5.73;5.13;;;;;;;11.90;76.60;94824.88;4989198;28;20488;-69
2023/10/25 09:54:10;;;;;;;6.23;5.63;;;;;;;12.06;76.42;94827.22;4988732;28;20444;-69
2023/10/25 09:56:36;;;;;;;6.00;5.40;;;;;;;11.94;76.55;94828.13;4988817;28;20431;-69
2023/10/25 09:59:03;;;;;;;5.37;4.60;;;;;;;11.89;77.10;94828.47;4988823;28;20404;-68
2023/10/25 10:01:29;;;;;;;6.30;5.43;;;;;;;12.11;76.23;94840.84;4988825;28;20507;-68
2023/10/25 10:04:12;;;;;;;7.50;5.20;;;;;;;12.02;76.03;94823.13;4988837;28;20511;-69
2023/10/25 10:06:49;;;;;;;8.40;4.83;;;;;;;12.11;75.68;94827.69;4988867;28;20251;-68
2023/10/25 10:09:27;;;;;;;5.20;4.70;;;;;;;12.31;74.37;94828.84;4988571;28;20558;-69
2023/10/25 10:12:00;;;;;;;5.73;5.20;;;;;;;12.17;75.40;94823.78;4988807;28;20527;-69
2023/10/25 10:14:33;;;;;;;5.97;4.90;;;;;;;12.30;75.06;94832.41;4988428;28;20450;-69
2023/10/25 10:17:14;;;;;;;5.97;5.23;;;;;;;12.54;74.02;94821.78;4988398;28;20507;-69
2023/10/25 10:19:44;;;;;;;5.63;5.13;;;;;;;12.56;74.41;94824.31;4988787;28;20411;-69
2023/10/25 10:22:13;;;;;;;10.60;5.90;;;;;;;12.53;74.91;94824.56;4988742;28;20510;-69
2023/10/25 10:24:47;;;;;;;15.33;6.27;;;;;;;12.54;74.71;94818.34;4988112;28;20427;-70
2023/10/25 10:27:17;;;;;;;14.37;7.30;;;;;;;12.52;75.07;94822.88;4988190;28;20458;-69
2023/10/25 10:29:44;;;;;;;10.40;7.10;;;;;;;12.54;74.68;94811.28;4988809;28;20506;-70
2023/10/25 10:32:10;;;;;;;7.83;5.90;;;;;;;12.62;75.09;94810.69;4988837;28;20774;-69
2023/10/25 10:34:57;;;;;;;22.97;8.00;;;;;;;13.09;73.69;94799.06;4988107;28;20420;-69
2023/10/25 10:37:28;;;;;;;39.37;9.60;;;;;;;13.42;72.71;94788.63;4988619;28;20416;-69
2023/10/25 10:40:03;;;;;;;8.07;6.27;;;;;;;13.29;72.89;94792.22;4988459;28;20412;-70
2023/10/25 10:42:28;;;;;;;13.30;8.27;;;;;;;13.11;73.14;94797.16;4988382;28;20416;-68
2023/10/25 10:44:57;;;;;;;11.10;7.57;;;;;;;12.88;74.84;94791.06;4988041;28;20423;-70
2023/10/25 10:47:42;;;;;;;9.30;8.07;;;;;;;12.85;75.21;94786.06;4988681;28;20191;-70
2023/10/25 10:50:18;;;;;;;8.73;7.90;;;;;;;12.95;75.31;94780.91;4989320;28;20463;-69
2023/10/25 10:52:45;;;;;;;9.30;7.33;;;;;;;13.04;75.13;94769.63;4988373;28;20418;-70
2023/10/25 10:55:19;;;;;;;8.30;7.50;;;;;;;13.39;74.24;94762.50;4988974;28;20450;-69
2023/10/25 10:57:45;;;;;;;8.50;7.57;;;;;;;13.32;73.92;94762.16;4987870;28;20407;-70
2023/10/25 11:00:13;;;;;;;7.90;7.10;;;;;;;13.68;73.15;94758.34;4988150;28;20408;-69
2023/10/25 11:02:39;;;;;;;10.60;7.50;;;;;;;13.86;72.52;94747.22;4988112;28;20416;-69
2023/10/25 11:05:06;;;;;;;11.63;8.60;;;;;;;13.84;72.89;94741.22;4988249;28;20562;-70
2023/10/25 11:07:31;;;;;;;8.30;7.20;;;;;;;13.58;74.02;94744.22;4988286;28;20423;-70
2023/10/25 11:09:57;;;;;;;7.57;6.90;;;;;;;13.91;72.79;94739.75;4988664;28;20460;-69
2023/10/25 11:12:24;;;;;;;11.23;8.83;;;;;;;13.96;73.11;94740.19;4989246;28;20173;-68
2023/10/25 11:14:49;;;;;;;7.27;6.67;;;;;;;14.00;72.74;94738.16;4987635;28;20177;-69
2023/10/25 11:17:15;;;;;;;8.87;7.57;;;;;;;13.85;73.52;94725.28;4987308;28;20491;-69
2023/10/25 11:19:44;;;;;;;7.77;7.07;;;;;;;13.73;73.91;94721.06;4986828;28;20180;-69
2023/10/25 11:22:10;;;;;;;7.57;5.97;;;;;;;13.55;74.67;94718.13;4987117;28;20208;-70
2023/10/25 11:24:35;;;;;;;20.30;8.17;;;;;;;13.73;74.59;94708.69;4986878;28;20624;-68
2023/10/25 11:27:02;;;;;;;43.77;10.97;;;;;;;13.67;74.64;94703.09;4987242;28;20679;-69